createdAt,value
2022-08-19T00:01:07.909Z,14.27
2022-08-19T00:03:50.741Z,15.50
2022-08-19T00:06:40.687Z,15.52
2022-08-19T00:09:37.576Z,12.80
2022-08-19T00:12:32.691Z,14.65
2022-08-19T00:15:18.301Z,18.80
2022-08-19T00:18:06.595Z,15.95
2022-08-19T00:20:56.196Z,20.60
2022-08-19T00:23:38.574Z,16.80
2022-08-19T00:26:27.835Z,16.27
2022-08-19T00:29:11.786Z,13.23
2022-08-19T00:31:58.836Z,15.35
2022-08-19T00:34:47.913Z,15.20
2022-08-19T00:37:37.045Z,12.10
2022-08-19T00:40:20.865Z,15.45
2022-08-19T00:43:09.196Z,15.25
2022-08-19T00:45:51.573Z,11.73
2022-08-19T00:48:42.971Z,12.05
2022-08-19T00:51:25.586Z,11.02
2022-08-19T00:54:14.213Z,12.15
2022-08-19T00:56:58.868Z,11.32
2022-08-19T01:00:00.781Z,11.43
2022-08-19T01:02:50.633Z,10.48
2022-08-19T01:05:39.903Z,13.85
2022-08-19T01:08:24.932Z,8.48
2022-08-19T01:11:20.532Z,15.65
2022-08-19T01:14:08.619Z,17.77
2022-08-19T01:16:51.934Z,14.52
2022-08-19T01:19:44.873Z,9.50
2022-08-19T01:22:33.856Z,8.07
2022-08-19T01:25:27.685Z,10.65
2022-08-19T01:28:18.688Z,12.40
2022-08-19T01:31:27.839Z,9.20
2022-08-19T01:34:11.945Z,10.65
2022-08-19T01:37:00.086Z,13.60
2022-08-19T01:39:41.556Z,9.73
2022-08-19T01:42:30.723Z,11.77
2022-08-19T01:45:13.676Z,11.38
2022-08-19T01:48:02.853Z,13.05
2022-08-19T01:50:46.580Z,9.60
2022-08-19T01:53:30.500Z,9.13
2022-08-19T01:56:23.699Z,14.68
2022-08-19T01:59:17.591Z,12.45
2022-08-19T02:02:06.721Z,13.95
2022-08-19T02:04:49.021Z,8.25
2022-08-19T09:03:18.910Z,4.25
2022-08-19T09:06:25.880Z,5.43
2022-08-19T09:09:23.506Z,2.92
2022-08-19T09:13:10.794Z,5.20
2022-08-19T09:16:25.612Z,8.52
2022-08-19T09:19:22.227Z,3.83
2022-08-19T09:22:08.679Z,3.03
2022-08-19T09:25:01.952Z,3.53
2022-08-19T09:27:46.269Z,4.90
2022-08-19T09:30:52.995Z,8.98
2022-08-19T09:33:35.099Z,2.80
2022-08-19T09:36:34.757Z,6.53
2022-08-19T09:39:17.108Z,3.60
2022-08-19T09:42:05.827Z,4.10
2022-08-19T09:45:10.175Z,4.43
2022-08-19T09:47:52.959Z,4.18
2022-08-19T09:53:35.898Z,4.55
2022-08-19T09:56:21.636Z,9.15
2022-08-19T09:59:10.913Z,7.32
2022-08-19T10:01:53.624Z,3.15
2022-08-19T10:05:02.097Z,7.90
2022-08-19T10:07:56.950Z,6.30
2022-08-19T10:10:46.724Z,5.95
2022-08-19T10:13:31.124Z,7.72
2022-08-19T10:16:31.025Z,5.72
2022-08-19T10:19:13.096Z,5.22
2022-08-19T10:22:03.929Z,6.25
2022-08-19T10:24:52.826Z,6.60
2022-08-19T10:27:51.355Z,6.35
2022-08-19T10:30:40.827Z,8.30
2022-08-19T10:33:38.882Z,5.30
2022-08-19T10:36:52.278Z,9.30
2022-08-19T10:39:48.029Z,6.07
2022-08-19T10:42:33.196Z,4.93
2022-08-19T10:45:22.938Z,5.72
2022-08-19T10:48:15.657Z,4.13
2022-08-19T10:51:22.744Z,5.32
2022-08-19T10:54:12.542Z,4.35
2022-08-19T10:57:01.916Z,3.95
2022-08-19T10:59:44.232Z,4.28
2022-08-19T11:02:32.921Z,8.82
2022-08-19T11:05:16.668Z,7.40
2022-08-19T11:08:23.176Z,5.60
2022-08-19T11:11:08.126Z,5.93
2022-08-19T11:13:58.927Z,12.73
2022-08-19T11:16:41.486Z,4.70
2022-08-19T11:19:31.928Z,9.93
2022-08-19T11:22:14.738Z,11.95
2022-08-19T11:25:07.913Z,10.00
2022-08-19T11:27:56.280Z,6.80
2022-08-19T11:30:37.909Z,8.90
2022-08-19T11:33:21.137Z,8.18
2022-08-19T11:41:45.882Z,8.38
2022-08-19T11:44:37.960Z,5.57
2022-08-19T11:47:20.956Z,5.50
2022-08-19T11:52:52.834Z,5.95
2022-08-19T11:55:44.959Z,10.63
2022-08-19T11:58:27.927Z,4.57
2022-08-19T12:01:13.181Z,4.03
2022-08-19T12:04:05.812Z,11.10
2022-08-19T12:07:00.781Z,4.22
2022-08-19T12:09:55.825Z,5.40
2022-08-19T12:12:39.996Z,8.32
2022-08-19T12:15:29.967Z,5.40
2022-08-19T12:18:19.114Z,11.70
2022-08-19T12:21:08.926Z,9.88
2022-08-19T12:23:59.890Z,13.65
2022-08-19T12:26:53.316Z,16.15
2022-08-19T12:30:09.514Z,8.68
2022-08-19T12:32:51.890Z,9.38
2022-08-19T12:35:34.189Z,5.32
2022-08-19T12:38:23.819Z,6.70
2022-08-19T12:41:08.238Z,7.38
2022-08-19T12:43:57.923Z,7.72
2022-08-19T12:46:40.225Z,7.70
2022-08-19T12:49:54.671Z,6.82
2022-08-19T12:52:34.193Z,7.35
2022-08-19T12:55:22.900Z,12.45
2022-08-19T12:58:41.765Z,14.23
2022-08-19T13:01:42.793Z,11.90
2022-08-19T13:04:25.116Z,7.70
2022-08-19T13:07:13.945Z,6.72
2022-08-19T13:10:08.815Z,10.50
2022-08-19T13:12:59.973Z,8.82
2022-08-19T13:16:01.226Z,10.00
2022-08-19T13:18:51.829Z,8.18
2022-08-19T13:21:36.094Z,12.05
2022-08-19T13:24:31.360Z,7.13
2022-08-19T13:27:16.197Z,11.95
2022-08-19T13:30:22.944Z,12.77
2022-08-19T13:33:15.520Z,14.82
2022-08-19T13:36:09.915Z,4.93
2022-08-19T13:38:53.817Z,7.18
2022-08-19T13:41:42.906Z,7.60
2022-08-19T13:44:26.208Z,8.40
2022-08-19T13:47:15.839Z,11.32
2022-08-19T13:50:01.389Z,8.90
2022-08-19T13:52:49.904Z,10.90
2022-08-19T13:55:35.240Z,8.50
2022-08-19T13:58:23.961Z,11.82
2022-08-19T14:01:07.229Z,14.23
2022-08-19T14:04:14.877Z,16.75
2022-08-19T14:07:22.825Z,17.83
2022-08-19T14:10:39.914Z,13.80
2022-08-19T14:13:28.954Z,10.60
2022-08-19T14:16:38.948Z,13.85
2022-08-19T14:19:36.026Z,26.13
2022-08-19T14:22:50.047Z,16.70
2022-08-19T14:26:15.532Z,11.95
2022-08-19T14:29:23.965Z,14.10
2022-08-19T14:32:26.539Z,13.00
2022-08-19T14:35:36.077Z,9.97
2022-08-19T14:38:38.666Z,12.20
2022-08-19T14:41:46.858Z,9.73
2022-08-19T14:44:48.077Z,12.65
2022-08-19T14:47:56.113Z,14.23
2022-08-19T14:51:05.847Z,12.82
2022-08-19T14:54:12.917Z,13.25
2022-08-19T14:57:17.914Z,16.48
2022-08-19T15:00:26.838Z,10.05
2022-08-19T15:03:28.346Z,17.38
2022-08-19T15:06:36.924Z,15.43
2022-08-19T15:09:38.290Z,10.13
2022-08-19T15:12:26.952Z,13.40
2022-08-19T15:15:27.426Z,11.52
2022-08-19T15:18:20.834Z,13.70
2022-08-19T15:21:10.043Z,15.13
2022-08-19T15:23:57.230Z,13.73
2022-08-19T15:26:46.975Z,14.48
2022-08-19T15:29:29.664Z,17.15
2022-08-19T15:32:19.875Z,18.02
2022-08-19T15:35:10.266Z,15.63
2022-08-19T15:37:56.486Z,14.43
2022-08-19T15:40:45.981Z,13.23
2022-08-19T15:43:28.076Z,15.43
2022-08-19T15:46:20.003Z,14.43
2022-08-19T15:49:05.314Z,14.50
2022-08-19T15:51:55.919Z,13.63
2022-08-19T15:54:39.056Z,11.98
2022-08-19T15:57:30.948Z,17.42
2022-08-19T16:00:38.826Z,15.27
2022-08-19T16:03:41.946Z,15.20
2022-08-19T16:06:32.523Z,12.05
2022-08-19T16:09:16.369Z,16.13
2022-08-19T16:12:15.786Z,16.00
2022-08-19T16:15:13.584Z,22.17
2022-08-19T16:17:57.844Z,15.30
2022-08-19T16:20:46.988Z,18.13
2022-08-19T16:23:29.186Z,18.60
2022-08-19T16:26:17.993Z,12.80
2022-08-19T16:29:12.188Z,11.57
2022-08-19T16:31:57.944Z,18.95
2022-08-19T16:34:48.228Z,11.45
2022-08-19T16:37:30.793Z,17.20
2022-08-19T16:40:20.758Z,14.63
2022-08-19T16:43:03.981Z,11.40
2022-08-19T16:45:56.301Z,10.52
2022-08-19T16:48:40.865Z,18.08
2022-08-19T16:51:30.905Z,14.32
2022-08-19T16:54:14.286Z,19.90
2022-08-19T16:57:03.890Z,16.20
2022-08-19T16:59:52.913Z,18.95
2022-08-19T17:02:42.801Z,13.45
2022-08-19T17:05:31.926Z,17.35
2022-08-19T17:08:14.632Z,15.63
2022-08-19T17:11:17.622Z,13.90
2022-08-19T17:14:12.744Z,13.20
2022-08-19T17:17:07.897Z,14.05
2022-08-19T17:19:56.090Z,20.85
2022-08-19T17:22:37.929Z,10.23
2022-08-19T17:25:20.041Z,10.68
2022-08-19T17:28:09.815Z,10.50
2022-08-19T17:30:58.920Z,11.75
2022-08-19T17:33:42.207Z,21.63
2022-08-19T17:36:30.888Z,18.23
2022-08-19T17:39:13.360Z,15.02
2022-08-19T17:42:02.766Z,16.48
2022-08-19T17:44:51.916Z,14.20
2022-08-19T17:47:42.916Z,12.45
2022-08-19T17:50:28.355Z,12.38
2022-08-19T17:53:18.181Z,10.55
2022-08-19T17:56:06.796Z,14.18
2022-08-19T17:59:00.428Z,16.38
2022-08-19T18:01:54.140Z,24.88
2022-08-19T18:04:48.236Z,17.02
2022-08-19T18:07:37.888Z,19.63
2022-08-19T18:10:34.708Z,14.82
2022-08-19T18:13:23.922Z,13.98
2022-08-19T18:16:19.777Z,20.85
2022-08-19T18:19:14.801Z,20.80
2022-08-19T18:22:03.222Z,10.20
2022-08-19T18:24:49.976Z,17.35
2022-08-19T18:27:32.678Z,20.17
2022-08-19T18:30:22.950Z,12.70
2022-08-19T18:33:14.723Z,13.57
2022-08-19T18:36:04.911Z,16.75
2022-08-19T18:39:08.160Z,15.23
2022-08-19T18:42:14.842Z,15.55
2022-08-19T18:45:21.805Z,11.00
2022-08-19T18:48:27.731Z,16.83
2022-08-19T18:51:20.027Z,16.15
2022-08-19T18:54:10.797Z,15.32
2022-08-19T18:57:03.422Z,20.00
2022-08-19T19:02:37.798Z,16.92
2022-08-19T19:05:26.807Z,11.55
2022-08-19T19:08:15.989Z,13.23
2022-08-19T19:10:59.978Z,17.00
2022-08-19T19:13:48.894Z,21.17
2022-08-19T19:16:31.213Z,18.77
2022-08-19T19:19:28.058Z,14.30
2022-08-19T19:22:26.783Z,17.92
2022-08-19T19:25:16.938Z,16.05
2022-08-19T19:28:05.963Z,13.95
2022-08-19T19:30:54.843Z,16.90
2022-08-19T19:33:43.908Z,17.58
2022-08-19T19:36:32.800Z,13.93
2022-08-19T19:39:44.769Z,16.15
2022-08-19T19:42:25.521Z,13.90
2022-08-19T19:45:14.950Z,20.52
2022-08-19T19:48:03.240Z,13.05
2022-08-19T19:50:44.887Z,21.00
2022-08-19T19:53:34.819Z,13.70
2022-08-19T19:56:23.880Z,18.33
2022-08-19T19:59:06.169Z,18.75
2022-08-19T20:01:54.905Z,11.75
2022-08-19T20:04:42.110Z,16.95
2022-08-19T20:07:50.977Z,20.55
2022-08-19T20:10:39.142Z,14.82
2022-08-19T20:13:24.901Z,14.63
2022-08-19T20:16:07.332Z,14.13
2022-08-19T20:18:57.069Z,18.13
2022-08-19T20:21:52.739Z,14.93
2022-08-19T20:24:43.862Z,18.23
2022-08-19T20:27:39.961Z,20.65
2022-08-19T20:30:29.802Z,17.83
2022-08-19T20:33:15.640Z,14.70
2022-08-19T20:36:04.833Z,15.52
2022-08-19T20:38:47.182Z,13.88
2022-08-19T20:41:35.806Z,20.35
2022-08-19T20:44:18.251Z,15.23
2022-08-19T20:47:06.931Z,19.55
2022-08-19T20:49:49.159Z,14.80
2022-08-19T20:52:37.955Z,17.25
2022-08-19T20:55:22.747Z,16.33
2022-08-19T20:58:11.884Z,17.88
2022-08-19T21:01:02.900Z,16.17
2022-08-19T21:03:52.772Z,13.68
2022-08-19T21:06:35.173Z,14.57
2022-08-19T21:09:23.757Z,23.90
2022-08-19T21:12:12.803Z,14.18
2022-08-19T21:15:01.046Z,17.70
2022-08-19T21:17:42.849Z,22.35
2022-08-19T21:20:31.861Z,25.90
2022-08-19T21:23:30.706Z,18.88
2022-08-19T21:26:19.865Z,30.25
2022-08-19T21:29:02.120Z,23.48
2022-08-19T21:31:50.919Z,17.63
2022-08-19T21:34:33.171Z,18.45
2022-08-19T21:37:25.167Z,16.75
2022-08-19T21:40:08.170Z,18.58
2022-08-19T21:42:56.857Z,17.00
2022-08-19T21:45:39.054Z,14.80
2022-08-19T21:48:27.906Z,16.17
2022-08-19T21:51:10.045Z,25.00
2022-08-19T21:53:58.849Z,14.40
2022-08-19T21:56:42.120Z,13.80
2022-08-19T21:59:30.914Z,20.63
2022-08-19T22:02:20.516Z,14.98
2022-08-19T22:05:09.895Z,15.65
2022-08-19T22:07:52.062Z,16.58
2022-08-19T22:10:42.789Z,18.23
2022-08-19T22:13:26.017Z,15.73
2022-08-19T22:16:14.832Z,15.80
2022-08-19T22:18:58.358Z,15.20
2022-08-19T22:21:46.873Z,18.13
2022-08-19T22:24:29.347Z,37.70
2022-08-19T22:27:17.844Z,19.55
2022-08-19T22:30:06.888Z,15.77
2022-08-19T22:32:56.318Z,14.43
2022-08-19T22:35:47.828Z,16.88
2022-08-19T22:38:30.034Z,14.65
2022-08-19T22:41:19.855Z,16.80
2022-08-19T22:44:02.231Z,14.45
2022-08-19T22:46:50.846Z,12.45
2022-08-19T22:49:33.038Z,11.07
2022-08-19T22:52:27.883Z,9.57
2022-08-19T22:55:10.232Z,18.77
2022-08-19T22:57:58.886Z,19.92
2022-08-19T23:00:47.166Z,12.52
2022-08-19T23:03:28.875Z,13.40
2022-08-19T23:06:11.609Z,15.55
2022-08-19T23:09:00.858Z,18.02
2022-08-19T23:11:49.136Z,19.83
2022-08-19T23:14:31.840Z,17.67
2022-08-19T23:17:20.699Z,22.25
2022-08-19T23:20:03.744Z,20.88
2022-08-19T23:23:01.865Z,13.35
2022-08-19T23:25:44.014Z,20.67
2022-08-19T23:28:52.947Z,27.35
2022-08-19T23:31:42.850Z,21.40
2022-08-19T23:34:31.239Z,18.45
2022-08-19T23:37:12.839Z,25.25
2022-08-19T23:40:01.348Z,30.88
2022-08-19T23:42:42.778Z,30.63
2022-08-19T23:45:26.972Z,22.10
2022-08-19T23:48:15.861Z,27.27
2022-08-19T23:50:59.267Z,24.58
2022-08-19T23:53:49.166Z,36.95
2022-08-19T23:56:37.868Z,30.98
2022-08-19T23:59:20.612Z,33.42
